createdAt,value
2022-09-26T00:00:23.666Z,8.72
2022-09-26T00:02:56.181Z,8.72
2022-09-26T00:05:28.723Z,8.72
2022-09-26T00:08:01.494Z,8.73
2022-09-26T00:10:34.745Z,8.72
2022-09-26T00:13:07.694Z,8.73
2022-09-26T00:15:40.237Z,8.73
2022-09-26T00:18:12.755Z,8.73
2022-09-26T00:20:45.319Z,8.74
2022-09-26T00:23:18.368Z,8.76
2022-09-26T00:25:51.850Z,8.77
2022-09-26T00:28:25.184Z,8.80
2022-09-26T00:31:02.726Z,8.79
2022-09-26T00:33:35.996Z,8.79
2022-09-26T00:36:09.374Z,8.81
2022-09-26T00:38:42.147Z,8.80
2022-09-26T00:41:16.208Z,8.83
2022-09-26T00:43:51.449Z,8.87
2022-09-26T00:46:47.841Z,8.91
2022-09-26T00:49:34.499Z,8.97
2022-09-26T00:52:10.279Z,9.02
2022-09-26T00:54:46.937Z,9.07
2022-09-26T00:57:23.727Z,9.12
2022-09-26T01:00:04.845Z,9.18
2022-09-26T01:02:39.044Z,9.21
2022-09-26T01:05:15.566Z,9.25
2022-09-26T01:07:49.346Z,9.28
2022-09-26T01:10:23.163Z,9.33
2022-09-26T01:12:59.528Z,9.37
2022-09-26T01:15:32.046Z,9.40
2022-09-26T01:18:05.257Z,9.43
2022-09-26T01:20:59.224Z,9.47
2022-09-26T01:23:38.038Z,9.47
2022-09-26T01:26:13.469Z,9.50
2022-09-26T01:29:15.712Z,9.53
2022-09-26T01:32:22.161Z,9.54
2022-09-26T01:35:23.991Z,9.55
2022-09-26T01:37:56.506Z,9.57
2022-09-26T01:40:49.210Z,9.55
2022-09-26T01:43:42.736Z,9.54
2022-09-26T01:46:46.693Z,9.54
2022-09-26T01:49:26.669Z,9.51
2022-09-26T01:52:09.807Z,9.50
2022-09-26T01:54:49.144Z,9.50
2022-09-26T01:57:29.559Z,9.48
2022-09-26T02:00:06.884Z,9.47
2022-09-26T02:02:46.040Z,9.44
2022-09-26T02:05:32.879Z,9.42
2022-09-26T02:08:12.913Z,9.39
2022-09-26T02:10:56.283Z,9.38
2022-09-26T02:13:46.927Z,9.34
2022-09-26T02:16:26.120Z,9.32
2022-09-26T02:19:06.728Z,9.28
2022-09-26T02:21:41.898Z,9.27
2022-09-26T02:24:14.946Z,9.28
2022-09-26T02:26:47.469Z,9.28
2022-09-26T02:29:20.822Z,9.25
2022-09-26T02:32:06.301Z,9.26
2022-09-26T02:34:42.490Z,9.24
2022-09-26T02:37:17.521Z,9.24
2022-09-26T02:39:52.126Z,9.25
2022-09-26T02:42:42.623Z,9.27
2022-09-26T02:45:39.591Z,9.28
2022-09-26T02:48:18.018Z,9.28
2022-09-26T02:51:17.037Z,9.30
2022-09-26T02:54:06.161Z,9.31
2022-09-26T02:56:49.921Z,9.33
2022-09-26T02:59:35.096Z,9.33
2022-09-26T03:02:17.855Z,9.36
2022-09-26T03:05:02.874Z,9.35
2022-09-26T03:07:42.604Z,9.38
2022-09-26T03:10:16.537Z,9.39
2022-09-26T03:12:50.723Z,9.39
2022-09-26T03:15:24.149Z,9.42
2022-09-26T03:17:58.293Z,9.43
2022-09-26T03:20:30.829Z,9.46
2022-09-26T03:23:04.473Z,9.47
2022-09-26T03:25:38.206Z,9.46
2022-09-26T03:28:12.337Z,9.47
2022-09-26T03:30:45.066Z,9.47
2022-09-26T03:33:17.566Z,9.48
2022-09-26T03:35:50.216Z,9.47
2022-09-26T03:38:22.801Z,9.49
2022-09-26T03:40:58.819Z,9.49
2022-09-26T03:43:31.509Z,9.51
2022-09-26T03:46:05.313Z,9.52
2022-09-26T03:48:38.448Z,9.51
2022-09-26T03:51:13.442Z,9.48
2022-09-26T03:53:47.236Z,9.47
2022-09-26T03:56:21.098Z,9.47
2022-09-26T03:58:53.861Z,9.40
2022-09-26T04:01:26.854Z,9.39
2022-09-26T04:03:59.426Z,9.32
2022-09-26T04:06:31.903Z,9.31
2022-09-26T04:09:05.295Z,9.26
2022-09-26T04:11:38.095Z,9.22
2022-09-26T04:14:10.652Z,9.21
2022-09-26T04:16:43.978Z,9.16
2022-09-26T04:19:16.557Z,9.10
2022-09-26T04:21:50.652Z,9.10
2022-09-26T04:24:23.143Z,9.06
2022-09-26T04:26:55.649Z,9.08
2022-09-26T04:29:29.187Z,9.09
2022-09-26T04:32:02.024Z,9.04
2022-09-26T04:34:34.593Z,9.07
2022-09-26T04:37:10.223Z,9.09
2022-09-26T04:39:43.754Z,9.06
2022-09-26T04:42:16.485Z,9.09
2022-09-26T04:44:48.955Z,9.10
2022-09-26T04:47:21.915Z,9.09
2022-09-26T04:49:54.538Z,9.08
2022-09-26T04:52:27.485Z,9.09
2022-09-26T04:55:00.078Z,9.12
2022-09-26T04:57:32.578Z,9.13
2022-09-26T05:00:07.314Z,9.12
2022-09-26T05:02:40.231Z,9.12
2022-09-26T05:05:13.710Z,9.09
2022-09-26T05:07:46.202Z,9.10
2022-09-26T05:10:18.737Z,9.08
2022-09-26T05:12:51.259Z,9.06
2022-09-26T05:15:23.650Z,9.07
2022-09-26T05:18:00.533Z,9.05
2022-09-26T05:20:34.264Z,9.03
2022-09-26T05:23:08.126Z,9.04
2022-09-26T05:26:00.368Z,9.02
2022-09-26T05:28:32.905Z,9.02
2022-09-26T05:31:08.586Z,9.02
2022-09-26T05:33:41.441Z,9.01
2022-09-26T05:36:14.059Z,9.03
2022-09-26T05:38:46.459Z,9.04
2022-09-26T05:41:19.961Z,9.03
2022-09-26T05:43:53.761Z,9.04
2022-09-26T05:46:31.814Z,9.04
2022-09-26T05:49:04.314Z,9.05
2022-09-26T05:51:37.990Z,9.07
2022-09-26T05:54:10.405Z,9.08
2022-09-26T05:56:42.773Z,9.09
2022-09-26T05:59:15.289Z,9.05
2022-09-26T06:01:48.042Z,9.06
2022-09-26T06:04:20.929Z,9.07
2022-09-26T06:06:53.334Z,9.04
2022-09-26T06:09:26.126Z,9.07
2022-09-26T06:11:58.496Z,9.03
2022-09-26T06:14:32.046Z,9.05
2022-09-26T06:17:04.393Z,9.09
2022-09-26T06:19:36.798Z,9.13
2022-09-26T06:22:09.227Z,9.16
2022-09-26T06:24:41.620Z,9.20
2022-09-26T06:27:14.069Z,9.25
2022-09-26T06:29:46.472Z,9.29
2022-09-26T06:32:18.877Z,9.31
2022-09-26T06:34:51.676Z,9.35
2022-09-26T06:37:24.044Z,9.38
2022-09-26T06:39:59.390Z,9.39
2022-09-26T06:42:37.923Z,9.46
2022-09-26T06:45:10.775Z,9.53
2022-09-26T06:47:43.146Z,9.64
2022-09-26T06:50:16.454Z,9.69
2022-09-26T06:52:48.819Z,9.77
2022-09-26T06:55:22.385Z,9.69
2022-09-26T06:57:54.781Z,9.77
2022-09-26T07:00:29.663Z,9.73
2022-09-26T07:03:02.429Z,9.79
2022-09-26T07:05:35.028Z,9.85
2022-09-26T07:08:07.417Z,9.90
2022-09-26T07:10:39.773Z,10.05
2022-09-26T07:13:12.162Z,9.98
2022-09-26T07:15:46.434Z,10.02
2022-09-26T07:18:18.838Z,10.02
2022-09-26T07:20:56.642Z,10.10
2022-09-26T07:23:29.400Z,10.06
2022-09-26T07:26:02.648Z,10.01
2022-09-26T07:28:36.719Z,10.04
2022-09-26T07:31:09.167Z,10.02
2022-09-26T07:33:41.858Z,10.12
2022-09-26T07:36:14.263Z,10.13
2022-09-26T07:38:49.889Z,10.12
2022-09-26T07:41:23.054Z,10.13
2022-09-26T07:47:06.683Z,10.26
2022-09-26T07:49:57.994Z,10.30
2022-09-26T07:52:30.709Z,10.33
2022-09-26T07:55:04.491Z,10.31
2022-09-26T07:57:36.967Z,10.40
2022-09-26T08:00:12.870Z,10.43
2022-09-26T08:02:46.902Z,10.49
2022-09-26T08:05:20.230Z,10.53
2022-09-26T08:07:52.842Z,10.67
2022-09-26T08:10:25.281Z,10.73
2022-09-26T08:12:58.659Z,10.75
2022-09-26T08:15:31.028Z,10.72
2022-09-26T08:18:03.686Z,10.79
2022-09-26T08:20:36.813Z,10.77
2022-09-26T08:23:11.409Z,10.63
2022-09-26T08:25:44.618Z,10.71
2022-09-26T08:28:17.289Z,10.75
2022-09-26T08:30:49.761Z,10.64
2022-09-26T08:33:23.520Z,10.67
2022-09-26T08:35:56.121Z,10.54
2022-09-26T08:38:28.469Z,10.61
2022-09-26T08:41:36.238Z,10.61
2022-09-26T08:44:30.286Z,10.71
2022-09-26T08:47:17.251Z,10.74
2022-09-26T08:50:03.396Z,10.88
2022-09-26T08:52:45.861Z,10.92
2022-09-26T08:55:24.152Z,10.97
2022-09-26T08:58:01.425Z,11.05
2022-09-26T09:00:38.089Z,11.07
2022-09-26T09:03:10.565Z,11.06
2022-09-26T09:05:48.527Z,11.12
2022-09-26T09:08:42.591Z,11.17
2022-09-26T09:11:53.343Z,11.30
2022-09-26T09:15:07.594Z,11.34
2022-09-26T09:18:03.545Z,11.34
2022-09-26T09:20:55.969Z,11.53
2022-09-26T09:23:52.910Z,11.43
2022-09-26T09:29:52.598Z,11.54
2022-09-26T09:32:31.154Z,11.52
2022-09-26T09:35:03.945Z,11.47
2022-09-26T09:37:43.652Z,11.48
2022-09-26T09:40:33.998Z,11.49
2022-09-26T09:43:14.842Z,11.27
2022-09-26T09:45:49.290Z,11.28
2022-09-26T09:48:27.024Z,11.04
2022-09-26T09:51:28.767Z,11.13
2022-09-26T09:54:26.237Z,11.03
2022-09-26T09:57:36.782Z,11.05
2022-09-26T10:00:16.499Z,11.05
2022-09-26T10:03:15.607Z,10.96
2022-09-26T10:05:53.438Z,11.05
2022-09-26T10:08:42.708Z,11.17
2022-09-26T10:11:30.486Z,11.26
2022-09-26T10:14:07.615Z,11.19
2022-09-26T10:17:11.253Z,11.29
2022-09-26T10:19:45.132Z,11.55
2022-09-26T10:22:25.178Z,11.59
2022-09-26T10:25:04.848Z,11.58
2022-09-26T10:27:40.152Z,11.52
2022-09-26T10:30:18.621Z,11.49
2022-09-26T10:32:57.202Z,11.52
2022-09-26T10:35:43.592Z,11.40
2022-09-26T10:38:23.116Z,11.19
2022-09-26T10:41:03.546Z,11.22
2022-09-26T10:43:37.998Z,11.25
2022-09-26T10:46:12.923Z,11.07
2022-09-26T10:49:02.093Z,11.14
2022-09-26T10:51:42.516Z,11.07
2022-09-26T10:54:23.589Z,11.01
2022-09-26T10:56:59.468Z,10.98
2022-09-26T10:59:36.276Z,11.08
2022-09-26T11:02:18.550Z,11.09
2022-09-26T11:05:15.847Z,11.09
2022-09-26T11:07:50.121Z,11.03
2022-09-26T11:10:32.565Z,10.96
2022-09-26T11:13:17.172Z,10.98
2022-09-26T11:15:59.304Z,10.96
2022-09-26T11:18:49.939Z,10.86
2022-09-26T11:21:48.063Z,10.91
2022-09-26T11:24:37.099Z,10.92
2022-09-26T11:27:21.435Z,10.76
2022-09-26T11:30:12.343Z,10.77
2022-09-26T11:32:48.998Z,10.69
2022-09-26T11:35:43.242Z,10.70
2022-09-26T11:38:41.305Z,10.64
2022-09-26T11:41:38.566Z,10.58
2022-09-26T11:44:27.666Z,10.62
2022-09-26T11:47:24.354Z,10.68
2022-09-26T11:50:23.298Z,10.67
2022-09-26T11:53:01.576Z,10.61
2022-09-26T11:55:54.138Z,10.62
2022-09-26T11:58:59.296Z,10.61
2022-09-26T12:02:09.089Z,10.70
2022-09-26T12:05:27.567Z,10.71
2022-09-26T12:08:21.620Z,10.65
2022-09-26T12:11:13.110Z,10.78
2022-09-26T12:13:53.153Z,10.80
2022-09-26T12:16:29.938Z,10.82
2022-09-26T12:19:16.973Z,10.75
2022-09-26T12:22:28.701Z,10.74
2022-09-26T12:25:26.345Z,10.77
2022-09-26T12:28:20.295Z,10.74
2022-09-26T12:31:13.950Z,10.67
2022-09-26T12:34:19.525Z,10.65
2022-09-26T12:37:27.478Z,10.70
2022-09-26T12:40:26.840Z,10.68
2022-09-26T12:43:27.053Z,10.72
2022-09-26T12:46:33.770Z,10.76
2022-09-26T12:49:29.492Z,10.79
2022-09-26T12:52:20.063Z,10.82
2022-09-26T12:55:16.906Z,10.79
2022-09-26T12:58:02.792Z,10.76
2022-09-26T13:00:44.043Z,10.78
2022-09-26T13:03:32.840Z,10.76
2022-09-26T13:06:27.371Z,10.74
2022-09-26T13:09:08.121Z,10.67
2022-09-26T13:11:56.031Z,10.73
2022-09-26T13:14:35.012Z,10.74
2022-09-26T13:17:15.424Z,10.81
2022-09-26T13:20:43.215Z,10.85
2022-09-26T13:23:34.863Z,10.85
2022-09-26T13:26:19.968Z,10.89
2022-09-26T13:29:17.322Z,10.87
2022-09-26T13:32:16.271Z,10.84
2022-09-26T13:35:02.780Z,10.77
2022-09-26T13:38:02.083Z,10.70
2022-09-26T13:40:46.672Z,10.73
2022-09-26T13:43:34.653Z,10.72
2022-09-26T13:46:20.516Z,10.75
2022-09-26T13:49:14.552Z,10.76
2022-09-26T13:51:58.186Z,10.79
2022-09-26T13:54:54.177Z,10.79
2022-09-26T13:58:03.805Z,10.87
2022-09-26T14:00:40.492Z,10.86
2022-09-26T14:03:13.604Z,10.89
2022-09-26T14:06:06.642Z,10.84
2022-09-26T14:09:18.782Z,10.92
2022-09-26T14:11:52.787Z,10.93
2022-09-26T14:14:38.458Z,11.01
2022-09-26T14:17:38.891Z,11.11
2022-09-26T14:20:27.532Z,11.16
2022-09-26T14:23:01.023Z,11.08
2022-09-26T14:25:45.351Z,11.06
2022-09-26T14:28:32.072Z,10.98
2022-09-26T14:31:21.872Z,11.01
2022-09-26T14:34:16.243Z,11.01
2022-09-26T14:36:51.935Z,11.00
2022-09-26T14:39:36.198Z,11.03
2022-09-26T14:42:22.318Z,10.94
2022-09-26T14:44:58.950Z,10.90
2022-09-26T14:47:40.277Z,10.97
2022-09-26T14:50:31.122Z,10.93
2022-09-26T14:53:18.449Z,10.84
2022-09-26T14:56:01.751Z,10.84
2022-09-26T14:58:54.889Z,10.79
2022-09-26T15:01:36.696Z,10.81
2022-09-26T15:04:14.948Z,10.80
2022-09-26T15:06:51.335Z,10.84
2022-09-26T15:09:45.101Z,10.80
2022-09-26T15:12:25.735Z,10.74
2022-09-26T15:15:29.146Z,10.71
2022-09-26T15:18:27.650Z,10.72
2022-09-26T15:21:26.430Z,10.77
2022-09-26T15:24:00.410Z,10.76
2022-09-26T15:26:36.710Z,10.68
2022-09-26T15:29:12.326Z,10.68
2022-09-26T15:31:46.058Z,10.67
2022-09-26T15:34:23.927Z,10.67
2022-09-26T15:36:58.795Z,10.61
2022-09-26T15:39:31.347Z,10.66
2022-09-26T15:42:39.335Z,10.60
2022-09-26T15:45:25.614Z,10.61
2022-09-26T15:48:01.228Z,10.60
2022-09-26T15:50:40.365Z,10.56
2022-09-26T15:53:27.782Z,10.59
2022-09-26T15:56:02.759Z,10.60
2022-09-26T15:59:09.659Z,10.60
2022-09-26T16:01:44.451Z,10.64
2022-09-26T16:04:22.629Z,10.61
2022-09-26T16:07:19.177Z,10.57
2022-09-26T16:09:51.896Z,10.60
2022-09-26T16:12:29.464Z,10.62
2022-09-26T16:15:07.277Z,10.61
2022-09-26T16:17:46.843Z,10.60
2022-09-26T16:20:21.431Z,10.59
2022-09-26T16:23:04.020Z,10.54
2022-09-26T16:25:40.042Z,10.55
2022-09-26T16:28:13.334Z,10.57
2022-09-26T16:30:58.963Z,10.57
2022-09-26T16:33:33.927Z,10.57
2022-09-26T16:36:17.610Z,10.55
2022-09-26T16:39:12.576Z,10.57
2022-09-26T16:42:01.600Z,10.56
2022-09-26T16:44:41.199Z,10.52
2022-09-26T16:47:35.429Z,10.53
2022-09-26T16:50:31.060Z,10.49
2022-09-26T16:53:09.555Z,10.47
2022-09-26T16:55:42.325Z,10.44
2022-09-26T16:58:15.925Z,10.43
2022-09-26T17:01:06.994Z,10.44
2022-09-26T17:03:42.381Z,10.42
2022-09-26T17:06:14.825Z,10.43
2022-09-26T17:08:47.689Z,10.45
2022-09-26T17:11:20.128Z,10.47
2022-09-26T17:13:52.556Z,10.46
2022-09-26T17:16:25.213Z,10.49
2022-09-26T17:18:58.089Z,10.45
2022-09-26T17:21:30.582Z,10.40
2022-09-26T17:24:03.054Z,10.42
2022-09-26T17:26:36.582Z,10.38
2022-09-26T17:29:19.414Z,10.34
2022-09-26T17:31:54.883Z,10.29
2022-09-26T17:34:28.869Z,10.25
2022-09-26T17:37:01.337Z,10.22
2022-09-26T17:39:33.848Z,10.20
2022-09-26T17:42:06.444Z,10.19
2022-09-26T17:44:38.898Z,10.14
2022-09-26T17:47:11.613Z,10.13
2022-09-26T17:49:49.036Z,10.06
2022-09-26T17:52:31.446Z,10.05
2022-09-26T17:55:07.172Z,10.00
2022-09-26T17:57:41.957Z,9.97
2022-09-26T18:00:16.010Z,9.94
2022-09-26T18:03:03.875Z,9.89
2022-09-26T18:05:39.703Z,9.82
2022-09-26T18:08:23.661Z,9.77
2022-09-26T18:10:59.472Z,9.74
2022-09-26T18:13:34.137Z,9.71
2022-09-26T18:16:09.498Z,9.67
2022-09-26T18:18:42.096Z,9.66
2022-09-26T18:21:19.223Z,9.65
2022-09-26T18:23:56.901Z,9.64
2022-09-26T18:26:37.282Z,9.64
2022-09-26T18:29:13.513Z,9.63
2022-09-26T18:31:46.465Z,9.65
2022-09-26T18:34:20.319Z,9.62
2022-09-26T18:36:56.876Z,9.58
2022-09-26T18:39:30.498Z,9.55
2022-09-26T18:42:09.142Z,9.56
2022-09-26T18:44:42.470Z,9.56
2022-09-26T18:47:17.123Z,9.55
2022-09-26T18:49:49.696Z,9.55
2022-09-26T18:52:22.466Z,9.58
2022-09-26T18:55:13.630Z,9.58
2022-09-26T18:58:04.801Z,9.63
2022-09-26T19:00:37.167Z,9.63
2022-09-26T19:03:09.693Z,9.62
2022-09-26T19:05:42.330Z,9.62
2022-09-26T19:08:35.185Z,9.60
2022-09-26T19:11:13.732Z,9.59
2022-09-26T19:13:49.089Z,9.64
2022-09-26T19:16:23.122Z,9.64
2022-09-26T19:18:55.745Z,9.65
2022-09-26T19:21:32.329Z,9.64
2022-09-26T19:24:10.800Z,9.64
2022-09-26T19:26:43.800Z,9.63
2022-09-26T19:29:23.545Z,9.61
2022-09-26T19:31:56.854Z,9.61
2022-09-26T19:34:32.700Z,9.57
2022-09-26T19:37:05.793Z,9.57
2022-09-26T19:39:38.378Z,9.56
2022-09-26T19:42:10.871Z,9.54
2022-09-26T19:44:43.312Z,9.54
2022-09-26T19:47:22.554Z,9.48
2022-09-26T19:49:55.032Z,9.50
2022-09-26T19:52:30.418Z,9.49
2022-09-26T19:55:02.941Z,9.47
2022-09-26T19:57:35.462Z,9.46
2022-09-26T20:00:10.853Z,9.44
2022-09-26T20:02:43.571Z,9.50
2022-09-26T20:05:23.212Z,9.50
2022-09-26T20:07:55.578Z,9.49
2022-09-26T20:10:29.261Z,9.49
2022-09-26T20:13:01.775Z,9.48
2022-09-26T20:15:34.287Z,9.47
2022-09-26T20:18:22.158Z,9.48
2022-09-26T20:20:56.770Z,9.50
2022-09-26T20:23:29.975Z,9.49
2022-09-26T20:26:02.475Z,9.46
2022-09-26T20:28:34.938Z,9.43
2022-09-26T20:31:21.611Z,9.46
2022-09-26T20:33:56.858Z,9.41
2022-09-26T20:36:32.037Z,9.38
2022-09-26T20:39:07.388Z,9.31
2022-09-26T20:41:41.018Z,9.27
2022-09-26T20:44:21.234Z,9.24
2022-09-26T20:46:58.043Z,9.20
2022-09-26T20:49:36.705Z,9.18
2022-09-26T20:52:26.557Z,9.11
2022-09-26T20:54:59.194Z,9.10
2022-09-26T20:57:31.589Z,9.05
2022-09-26T21:00:04.276Z,9.02
2022-09-26T21:02:39.057Z,9.01
2022-09-26T21:05:22.766Z,8.99
2022-09-26T21:07:56.870Z,8.99
2022-09-26T21:10:33.705Z,8.97
2022-09-26T21:13:06.175Z,8.96
2022-09-26T21:15:41.456Z,8.94
2022-09-26T21:18:29.223Z,8.93
2022-09-26T21:21:07.480Z,8.90
2022-09-26T21:23:42.587Z,8.89
2022-09-26T21:26:23.592Z,8.89
2022-09-26T21:28:56.533Z,8.87
2022-09-26T21:31:32.253Z,8.86
2022-09-26T21:34:12.320Z,8.85
2022-09-26T21:36:45.614Z,8.84
2022-09-26T21:39:19.009Z,8.81
2022-09-26T21:41:55.561Z,8.80
2022-09-26T21:44:32.446Z,8.77
2022-09-26T21:47:04.926Z,8.76
2022-09-26T21:49:37.390Z,8.74
2022-09-26T21:52:19.783Z,8.72
2022-09-26T21:54:52.646Z,8.68
2022-09-26T21:57:34.615Z,8.65
2022-09-26T22:00:10.410Z,8.63
2022-09-26T22:02:43.007Z,8.62
2022-09-26T22:05:16.744Z,8.56
2022-09-26T22:07:49.165Z,8.51
2022-09-26T22:10:21.541Z,8.48
2022-09-26T22:12:53.919Z,8.45
2022-09-26T22:15:26.316Z,8.43
2022-09-26T22:17:58.842Z,8.39
2022-09-26T22:20:31.305Z,8.38
2022-09-26T22:23:04.355Z,8.38
2022-09-26T22:25:40.832Z,8.36
2022-09-26T22:28:15.093Z,8.36
2022-09-26T22:30:47.649Z,8.34
2022-09-26T22:33:21.135Z,8.36
2022-09-26T22:35:53.600Z,8.37
2022-09-26T22:38:26.246Z,8.36
2022-09-26T22:41:00.885Z,8.36
2022-09-26T22:43:34.970Z,8.34
2022-09-26T22:46:10.164Z,8.32
2022-09-26T22:48:45.841Z,8.28
2022-09-26T22:51:18.430Z,8.27
2022-09-26T22:53:50.912Z,8.24
2022-09-26T22:56:23.708Z,8.20
2022-09-26T22:58:56.226Z,8.21
2022-09-26T23:01:29.027Z,8.20
2022-09-26T23:04:01.748Z,8.20
2022-09-26T23:06:34.133Z,8.21
2022-09-26T23:09:06.588Z,8.22
2022-09-26T23:11:39.029Z,8.25
2022-09-26T23:14:11.428Z,8.25
2022-09-26T23:16:43.962Z,8.25
2022-09-26T23:19:16.574Z,8.24
2022-09-26T23:21:49.073Z,8.21
2022-09-26T23:24:21.605Z,8.19
2022-09-26T23:26:54.072Z,8.17
2022-09-26T23:29:26.822Z,8.13
2022-09-26T23:31:59.236Z,8.12
2022-09-26T23:34:31.738Z,8.10
2022-09-26T23:37:04.427Z,8.06
2022-09-26T23:39:36.855Z,8.06
2022-09-26T23:42:09.382Z,8.05
2022-09-26T23:44:41.811Z,8.03
2022-09-26T23:47:14.183Z,8.03
2022-09-26T23:49:46.624Z,8.06
2022-09-26T23:52:19.359Z,8.09
2022-09-26T23:54:51.833Z,8.13
2022-09-26T23:57:24.557Z,8.15
2022-09-26T23:59:57.247Z,8.18
